createdAt,value
2022-07-25T04:16:38.538Z,99613.53
2022-07-25T04:19:06.848Z,99612.25
2022-07-25T04:21:33.509Z,99616.06
2022-07-25T04:24:00.114Z,99617.06
2022-07-25T04:26:26.611Z,99620.84
2022-07-25T04:28:54.726Z,99618.28
2022-07-25T04:31:38.894Z,99613.22
2022-07-25T04:34:23.550Z,99613.50
2022-07-25T04:36:51.787Z,99614.78
2022-07-25T04:39:18.348Z,99603.91
2022-07-25T04:41:44.842Z,99606.34
2022-07-25T04:44:11.401Z,99607.03
2022-07-25T04:46:38.020Z,99606.06
2022-07-25T04:49:04.813Z,99610.75
2022-07-25T04:51:31.389Z,99590.66
2022-07-25T04:53:57.949Z,99603.53
2022-07-25T04:56:24.460Z,99603.66
2022-07-25T04:58:54.046Z,99608.31
2022-07-25T05:01:20.589Z,99612.88
2022-07-25T05:03:50.010Z,99597.59
2022-07-25T05:06:18.751Z,99603.41
2022-07-25T05:08:45.420Z,99599.72
2022-07-25T05:11:11.985Z,99607.06
2022-07-25T05:13:38.507Z,99606.66
2022-07-25T05:16:05.567Z,99597.47
2022-07-25T05:18:34.281Z,99600.84
2022-07-25T05:21:03.900Z,99593.75
2022-07-25T05:23:30.450Z,99596.84
2022-07-25T05:25:57.628Z,99590.53
2022-07-25T05:28:24.098Z,99591.06
2022-07-25T05:30:50.652Z,99594.03
2022-07-25T05:33:17.173Z,99594.31
2022-07-25T05:35:52.971Z,99593.84
2022-07-25T05:38:19.769Z,99592.13
2022-07-25T05:40:46.323Z,99580.13
2022-07-25T05:43:12.891Z,99587.72
2022-07-25T05:45:39.349Z,99579.94
2022-07-25T05:48:06.602Z,99578.78
2022-07-25T05:50:33.127Z,99574.28
2022-07-25T05:52:59.688Z,99584.16
2022-07-25T05:55:26.221Z,99585.16
2022-07-25T05:57:52.763Z,99575.63
2022-07-25T06:00:19.361Z,99575.19
2022-07-25T06:02:45.986Z,99577.16
2022-07-25T06:05:12.728Z,99571.38
2022-07-25T06:07:39.793Z,99577.16
2022-07-25T06:10:06.448Z,99568.06
2022-07-25T06:12:33.733Z,99565.06
2022-07-25T06:15:04.208Z,99576.59
2022-07-25T06:17:32.700Z,99567.97
2022-07-25T06:19:59.524Z,99566.97
2022-07-25T06:22:26.365Z,99565.22
2022-07-25T06:24:52.974Z,99557.31
2022-07-25T06:27:21.107Z,99560.00
2022-07-25T06:29:49.663Z,99558.94
2022-07-25T06:36:12.144Z,99560.38
2022-07-25T06:38:38.712Z,99549.88
2022-07-25T06:41:05.360Z,99558.31
2022-07-25T06:43:31.900Z,99555.88
2022-07-25T06:45:58.383Z,99553.69
2022-07-25T06:48:24.995Z,99556.63
2022-07-25T06:50:51.684Z,99552.47
2022-07-25T06:53:18.520Z,99557.31
2022-07-25T06:55:45.552Z,99554.78
2022-07-25T06:58:12.136Z,99554.16
2022-07-25T07:00:43.966Z,99552.19
2022-07-25T07:03:10.867Z,99549.94
2022-07-25T07:05:39.424Z,99549.84
2022-07-25T07:08:06.129Z,99547.91
2022-07-25T07:10:37.898Z,99541.88
2022-07-25T07:13:09.462Z,99541.72
2022-07-25T07:15:37.065Z,99541.84
2022-07-25T07:18:06.317Z,99542.66
2022-07-25T07:20:33.144Z,99543.78
2022-07-25T07:22:59.664Z,99548.25
2022-07-25T07:25:28.312Z,99550.44
2022-07-25T07:27:55.261Z,99545.31
2022-07-25T07:30:24.435Z,99542.97
2022-07-25T07:33:02.079Z,99538.28
2022-07-25T07:35:28.667Z,99531.22
2022-07-25T07:38:01.407Z,99535.25
2022-07-25T07:40:28.091Z,99536.28
2022-07-25T07:42:57.194Z,99535.94
2022-07-25T07:46:33.992Z,99534.25
2022-07-25T07:49:29.863Z,99543.88
2022-07-25T07:52:06.898Z,99543.03
2022-07-25T07:54:56.473Z,99546.25
2022-07-25T07:57:31.981Z,99540.63
2022-07-25T07:59:59.483Z,99541.84
2022-07-25T08:02:27.117Z,99536.69
2022-07-25T08:04:53.823Z,99540.75
2022-07-25T08:07:20.501Z,99546.69
2022-07-25T08:09:47.048Z,99549.94
2022-07-25T08:12:13.571Z,99556.16
2022-07-25T08:14:42.139Z,99548.75
2022-07-25T08:17:08.722Z,99548.38
2022-07-25T08:19:39.350Z,99549.53
2022-07-25T08:22:05.864Z,99541.16
2022-07-25T08:24:32.365Z,99541.53
2022-07-25T08:27:01.899Z,99536.44
2022-07-25T08:29:28.565Z,99540.06
2022-07-25T08:31:55.039Z,99527.50
2022-07-25T08:34:26.673Z,99532.09
2022-07-25T08:36:53.156Z,99526.91
2022-07-25T08:39:19.950Z,99526.06
2022-07-25T08:41:47.636Z,99521.44
2022-07-25T08:44:16.203Z,99519.41
2022-07-25T08:46:43.776Z,99515.84
2022-07-25T08:49:10.676Z,99518.31
2022-07-25T08:51:38.591Z,99512.97
2022-07-25T08:54:06.060Z,99506.56
2022-07-25T08:56:33.966Z,99506.66
2022-07-25T08:59:00.782Z,99506.00
2022-07-25T09:01:31.646Z,99496.53
2022-07-25T09:04:27.410Z,99504.63
2022-07-25T09:07:17.959Z,99497.66
2022-07-25T09:09:51.356Z,99502.09
2022-07-25T09:12:27.593Z,99498.69
2022-07-25T09:14:57.845Z,99494.69
2022-07-25T09:17:30.402Z,99492.28
2022-07-25T09:20:05.535Z,99493.44
2022-07-25T09:22:51.682Z,99488.69
2022-07-25T09:25:39.339Z,99483.28
2022-07-25T09:28:31.114Z,99484.59
2022-07-25T09:31:02.809Z,99470.31
2022-07-25T09:33:34.315Z,99475.19
2022-07-25T09:36:12.357Z,99469.16
2022-07-25T09:39:17.710Z,99472.56
2022-07-25T09:41:53.405Z,99470.13
2022-07-25T09:44:30.434Z,99476.31
2022-07-25T09:47:16.197Z,99473.47
2022-07-25T09:50:09.753Z,99471.16
2022-07-25T09:53:02.784Z,99470.41
2022-07-25T09:56:35.214Z,99454.50
2022-07-25T10:02:47.628Z,99447.31
2022-07-25T10:05:22.047Z,99455.69
2022-07-25T10:07:54.772Z,99442.72
2022-07-25T10:10:43.543Z,99453.00
2022-07-25T10:13:29.649Z,99445.28
2022-07-25T10:15:59.969Z,99449.09
2022-07-25T10:18:31.527Z,99443.19
2022-07-25T10:21:25.564Z,99434.84
2022-07-25T10:24:09.996Z,99437.84
2022-07-25T10:26:52.609Z,99436.97
2022-07-25T10:29:19.115Z,99436.56
2022-07-25T10:31:50.632Z,99426.44
2022-07-25T10:34:29.022Z,99425.66
2022-07-25T10:36:57.095Z,99422.91
2022-07-25T10:39:23.952Z,99423.53
2022-07-25T10:42:18.218Z,99413.00
2022-07-25T10:44:48.304Z,99406.78
2022-07-25T10:47:17.301Z,99395.38
2022-07-25T10:50:15.303Z,99403.84
2022-07-25T10:52:42.556Z,99393.50
2022-07-25T10:55:09.345Z,99393.28
2022-07-25T10:57:41.596Z,99393.78
2022-07-25T11:00:16.953Z,99391.63
2022-07-25T11:02:44.274Z,99387.63
2022-07-25T11:05:10.798Z,99387.66
2022-07-25T11:07:37.238Z,99380.31
2022-07-25T11:10:06.163Z,99377.69
2022-07-25T11:12:33.425Z,99382.72
2022-07-25T11:15:03.744Z,99377.06
2022-07-25T11:17:30.553Z,99378.78
2022-07-25T11:19:58.239Z,99371.84
2022-07-25T11:22:26.306Z,99364.47
2022-07-25T11:24:53.485Z,99361.31
2022-07-25T11:27:23.913Z,99364.75
2022-07-25T11:29:51.305Z,99359.91
2022-07-25T11:32:17.961Z,99368.59
2022-07-25T11:34:52.536Z,99367.63
2022-07-25T11:37:20.366Z,99362.38
2022-07-25T11:39:47.871Z,99365.00
2022-07-25T11:42:19.697Z,99366.44
2022-07-25T11:44:49.129Z,99369.44
2022-07-25T11:47:25.216Z,99362.25
2022-07-25T11:49:52.913Z,99368.53
2022-07-25T11:52:22.004Z,99363.38
2022-07-25T11:54:52.823Z,99362.72
2022-07-25T11:57:30.754Z,99357.56
2022-07-25T12:00:00.394Z,99359.81
2022-07-25T12:02:31.125Z,99346.44
2022-07-25T12:05:05.052Z,99355.66
2022-07-25T12:07:38.654Z,99347.00
2022-07-25T12:10:07.777Z,99336.66
2022-07-25T12:12:50.403Z,99341.84
2022-07-25T12:15:26.595Z,99344.13
2022-07-25T12:17:54.992Z,99342.28
2022-07-25T12:20:25.978Z,99361.91
2022-07-25T12:22:56.451Z,99342.53
2022-07-25T12:25:26.397Z,99342.75
2022-07-25T12:27:58.730Z,99342.50
2022-07-25T12:30:27.426Z,99341.22
2022-07-25T12:32:54.329Z,99338.88
2022-07-25T12:35:20.842Z,99329.53
2022-07-25T12:37:47.659Z,99327.56
2022-07-25T12:40:16.408Z,99335.31
2022-07-25T12:42:44.150Z,99335.91
2022-07-25T12:45:12.457Z,99328.94
2022-07-25T12:47:39.183Z,99319.63
2022-07-25T12:50:06.341Z,99305.41
2022-07-25T12:52:32.997Z,99319.84
2022-07-25T12:54:59.573Z,99319.06
2022-07-25T12:57:26.217Z,99308.13
2022-07-25T12:59:53.075Z,99302.06
2022-07-25T13:02:19.695Z,99305.00
2022-07-25T13:04:46.277Z,99318.31
2022-07-25T13:07:13.545Z,99308.66
2022-07-25T13:09:40.132Z,99318.97
2022-07-25T13:12:07.079Z,99317.94
2022-07-25T13:14:33.581Z,99320.25
2022-07-25T13:17:00.682Z,99319.66
2022-07-25T13:19:28.474Z,99323.84
2022-07-25T13:21:54.959Z,99337.38
2022-07-25T13:24:21.436Z,99339.81
2022-07-25T13:26:48.097Z,99334.34
2022-07-25T13:29:14.606Z,99339.19
2022-07-25T13:31:42.077Z,99340.00
2022-07-25T13:34:10.006Z,99348.81
2022-07-25T13:36:38.150Z,99338.63
2022-07-25T13:39:05.643Z,99335.44
2022-07-25T13:41:32.925Z,99339.59
2022-07-25T13:44:00.295Z,99330.41
2022-07-25T13:46:27.034Z,99338.13
2022-07-25T13:48:55.095Z,99341.06
2022-07-25T13:51:21.636Z,99326.44
2022-07-25T13:53:48.230Z,99312.81
2022-07-25T13:56:14.746Z,99305.03
2022-07-25T13:58:41.654Z,99317.59
2022-07-25T14:01:09.499Z,99318.78
2022-07-25T14:03:36.890Z,99324.75
2022-07-25T14:06:05.062Z,99303.34
2022-07-25T14:08:32.078Z,99306.47
2022-07-25T14:10:58.620Z,99304.03
2022-07-25T14:13:25.178Z,99299.03
2022-07-25T14:15:52.175Z,99307.59
2022-07-25T14:18:18.760Z,99286.69
2022-07-25T14:20:46.530Z,99294.03
2022-07-25T14:23:13.480Z,99289.94
2022-07-25T14:25:40.081Z,99291.75
2022-07-25T14:28:06.838Z,99289.63
2022-07-25T14:30:33.499Z,99288.31
2022-07-25T14:32:59.994Z,99291.22
2022-07-25T14:35:32.166Z,99282.16
2022-07-25T14:37:59.071Z,99263.88
2022-07-25T14:40:25.673Z,99267.78
2022-07-25T14:42:52.157Z,99267.34
2022-07-25T14:45:18.875Z,99254.75
2022-07-25T14:47:45.390Z,99261.44
2022-07-25T14:50:11.913Z,99264.13
2022-07-25T14:52:38.557Z,99257.84
2022-07-25T14:55:05.787Z,99264.94
2022-07-25T14:57:33.174Z,99260.13
2022-07-25T15:00:01.844Z,99265.81
2022-07-25T15:02:29.845Z,99263.50
2022-07-25T15:04:56.414Z,99258.88
2022-07-25T15:07:22.959Z,99256.78
2022-07-25T15:09:49.403Z,99251.56
2022-07-25T15:12:17.390Z,99259.84
2022-07-25T15:14:44.067Z,99255.59
2022-07-25T15:17:12.773Z,99260.34
2022-07-25T15:19:39.472Z,99262.97
2022-07-25T15:22:06.279Z,99243.94
2022-07-25T15:24:44.487Z,99263.28
2022-07-25T15:27:19.351Z,99254.44
2022-07-25T15:29:45.910Z,99250.34
2022-07-25T15:32:12.444Z,99245.97
2022-07-25T15:34:39.269Z,99245.25
2022-07-25T15:37:05.812Z,99245.69
2022-07-25T15:39:32.477Z,99244.09
2022-07-25T15:41:59.172Z,99250.25
2022-07-25T15:44:25.739Z,99254.59
2022-07-25T15:46:52.453Z,99262.50
2022-07-25T15:49:21.162Z,99260.84
2022-07-25T15:51:48.094Z,99259.38
2022-07-25T15:54:14.736Z,99246.06
2022-07-25T15:56:41.427Z,99255.75
2022-07-25T15:59:08.479Z,99262.78
2022-07-25T16:01:35.304Z,99273.38
2022-07-25T16:04:01.910Z,99261.22
2022-07-25T16:06:28.503Z,99262.81
2022-07-25T16:08:55.167Z,99278.28
2022-07-25T16:11:24.791Z,99271.63
2022-07-25T16:13:51.395Z,99271.13
2022-07-25T16:16:18.074Z,99273.03
2022-07-25T16:18:44.789Z,99270.47
2022-07-25T16:21:11.393Z,99274.31
2022-07-25T16:23:42.583Z,99268.28
2022-07-25T16:26:12.309Z,99283.19
2022-07-25T16:28:39.857Z,99278.72
2022-07-25T16:31:06.869Z,99287.75
2022-07-25T16:33:33.751Z,99282.47
2022-07-25T16:36:00.388Z,99285.28
2022-07-25T16:38:28.768Z,99290.56
2022-07-25T16:40:55.636Z,99290.75
2022-07-25T16:43:22.173Z,99299.72
2022-07-25T16:45:48.719Z,99304.25
2022-07-25T16:48:15.675Z,99309.88
2022-07-25T16:50:42.274Z,99327.16
2022-07-25T16:53:08.767Z,99311.91
2022-07-25T16:55:35.253Z,99330.97
2022-07-25T16:58:01.721Z,99328.28
2022-07-25T17:00:28.321Z,99320.94
2022-07-25T17:02:54.797Z,99335.00
2022-07-25T17:05:21.351Z,99338.53
2022-07-25T17:07:48.863Z,99347.63
2022-07-25T17:10:18.649Z,99345.63
2022-07-25T17:12:45.264Z,99359.81
2022-07-25T17:15:12.383Z,99361.25
2022-07-25T17:17:38.991Z,99351.41
2022-07-25T17:20:06.014Z,99365.28
2022-07-25T17:22:32.928Z,99371.28
2022-07-25T17:24:59.418Z,99365.06
2022-07-25T17:27:25.936Z,99377.47
2022-07-25T17:29:52.499Z,99381.41
2022-07-25T17:32:19.004Z,99383.44
2022-07-25T17:34:45.587Z,99381.56
2022-07-25T17:37:12.166Z,99372.88
2022-07-25T17:39:39.980Z,99385.84
2022-07-25T17:42:07.207Z,99392.56
2022-07-25T17:44:34.789Z,99391.19
2022-07-25T17:47:02.859Z,99400.03
2022-07-25T17:49:29.770Z,99396.63
2022-07-25T17:51:56.251Z,99414.81
2022-07-25T17:54:23.193Z,99407.16
2022-07-25T17:56:49.786Z,99403.16
2022-07-25T17:59:16.489Z,99425.41
2022-07-25T18:01:43.143Z,99417.53
2022-07-25T18:04:10.083Z,99424.06
2022-07-25T18:06:37.853Z,99431.22
2022-07-25T18:09:04.554Z,99414.75
2022-07-25T18:11:31.080Z,99432.16
2022-07-25T18:13:59.401Z,99439.25
2022-07-25T18:16:26.492Z,99449.56
2022-07-25T18:18:53.066Z,99455.94
2022-07-25T18:21:20.690Z,99461.97
2022-07-25T18:23:48.322Z,99471.69
2022-07-25T18:26:14.912Z,99473.84
2022-07-25T18:28:42.554Z,99475.22
2022-07-25T18:31:10.347Z,99519.31
2022-07-25T18:33:37.154Z,99500.19
2022-07-25T18:36:07.593Z,99499.09
2022-07-25T18:38:35.465Z,99507.97
2022-07-25T18:41:27.396Z,99509.19
2022-07-25T18:43:49.985Z,99508.31
2022-07-25T18:46:17.806Z,99517.25
2022-07-25T18:48:45.200Z,99523.50
2022-07-25T18:51:12.099Z,99526.44
2022-07-25T18:53:38.853Z,99522.81
2022-07-25T18:56:05.904Z,99533.47
2022-07-25T18:58:33.650Z,99520.56
2022-07-25T19:01:02.792Z,99532.16
2022-07-25T19:03:30.094Z,99536.75
2022-07-25T19:06:01.270Z,99556.50
2022-07-25T19:08:29.978Z,99544.44
2022-07-25T19:10:56.624Z,99547.19
2022-07-25T19:13:47.789Z,99559.47
2022-07-25T19:16:11.984Z,99561.56
2022-07-25T19:18:39.323Z,99572.47
2022-07-25T19:21:06.077Z,99583.09
2022-07-25T19:23:32.794Z,99588.91
2022-07-25T19:26:00.846Z,99596.00
2022-07-25T19:28:44.325Z,99586.81
2022-07-25T19:31:10.929Z,99603.22
2022-07-25T19:33:38.876Z,99612.72
2022-07-25T19:36:06.767Z,99611.34
2022-07-25T19:38:33.479Z,99603.66
2022-07-25T19:41:01.831Z,99614.78
2022-07-25T19:43:28.387Z,99616.97
2022-07-25T19:45:54.925Z,99627.75
2022-07-25T19:48:24.233Z,99630.66
2022-07-25T19:50:51.656Z,99623.72
2022-07-25T19:53:18.623Z,99630.16
2022-07-25T19:55:45.160Z,99635.50
2022-07-25T19:58:11.666Z,99637.56
2022-07-25T20:00:39.336Z,99639.88
2022-07-25T20:03:06.155Z,99639.25
2022-07-25T20:05:32.925Z,99627.94
2022-07-25T20:08:00.482Z,99625.75
2022-07-25T20:10:27.102Z,99625.88
2022-07-25T20:12:56.884Z,99634.19
2022-07-25T20:16:18.429Z,99631.44
2022-07-25T20:18:48.500Z,99646.34
2022-07-25T20:21:17.856Z,99645.69
2022-07-25T20:23:45.973Z,99653.44
2022-07-25T20:26:13.681Z,99654.63
2022-07-25T20:28:45.874Z,99655.66
2022-07-25T20:31:12.800Z,99663.94
2022-07-25T20:33:39.453Z,99671.16
2022-07-25T20:36:06.242Z,99670.16
2022-07-25T20:38:32.820Z,99679.69
2022-07-25T20:40:59.776Z,99682.47
2022-07-25T20:43:39.119Z,99684.28
2022-07-25T20:46:12.644Z,99689.66
2022-07-25T20:48:41.707Z,99701.63
2022-07-25T20:51:08.499Z,99709.00
2022-07-25T20:53:35.134Z,99715.13
2022-07-25T20:56:02.503Z,99716.75
2022-07-25T20:58:29.067Z,99718.88
2022-07-25T21:00:56.103Z,99718.94
2022-07-25T21:03:22.693Z,99730.78
2022-07-25T21:05:49.184Z,99734.94
2022-07-25T21:08:15.820Z,99747.38
2022-07-25T21:10:42.809Z,99747.34
2022-07-25T21:13:10.368Z,99746.56
2022-07-25T21:15:37.192Z,99755.84
2022-07-25T21:18:03.911Z,99760.63
2022-07-25T21:20:30.479Z,99762.22
2022-07-25T21:22:57.022Z,99758.19
2022-07-25T21:25:23.493Z,99757.38
2022-07-25T21:27:50.254Z,99763.59
2022-07-25T21:30:16.822Z,99761.06
2022-07-25T21:32:44.361Z,99759.28
2022-07-25T21:35:20.083Z,99765.34
2022-07-25T21:38:26.693Z,99772.91
2022-07-25T21:40:56.060Z,99773.13
2022-07-25T21:43:22.889Z,99770.25
2022-07-25T21:45:49.652Z,99766.25
2022-07-25T21:48:16.153Z,99779.41
2022-07-25T21:50:51.292Z,99780.06
2022-07-25T21:53:17.753Z,99785.81
2022-07-25T21:55:44.411Z,99781.06
2022-07-25T21:58:10.857Z,99784.44
